createdAt,value
2018-09-09T00:02:16.431Z,17.78
2018-09-09T00:04:46.372Z,17.70
2018-09-09T00:07:16.721Z,17.73
2018-09-09T00:09:48.082Z,17.80
2018-09-09T00:12:18.357Z,17.77
2018-09-09T00:14:47.786Z,17.68
2018-09-09T00:17:17.397Z,17.66
2018-09-09T00:37:09.282Z,17.50
2018-09-09T00:57:00.749Z,17.44
2018-09-09T00:59:30.595Z,17.48
2018-09-09T01:02:00.237Z,17.53
2018-09-09T01:04:29.576Z,17.45
2018-09-09T01:06:59.593Z,17.45
2018-09-09T01:09:34.525Z,17.45
2018-09-09T01:12:05.217Z,17.46
2018-09-09T01:31:56.425Z,17.21
2018-09-09T01:34:26.171Z,17.27
2018-09-09T01:36:55.639Z,17.24
2018-09-09T01:39:25.160Z,17.22
2018-09-09T01:59:17.430Z,17.20
2018-09-09T02:01:47.228Z,17.21
2018-09-09T02:21:39.837Z,16.95
2018-09-09T02:24:09.496Z,16.95
2018-09-09T02:26:39.052Z,16.94
2018-09-09T02:46:31.021Z,16.84
2018-09-09T02:49:00.570Z,16.78
2018-09-09T02:51:30.598Z,16.82
2018-09-09T02:54:00.658Z,16.78
2018-09-09T02:56:30.502Z,16.78
2018-09-09T02:58:59.929Z,16.69
2018-09-09T03:01:29.849Z,16.73
2018-09-09T03:03:59.667Z,16.66
2018-09-09T03:06:29.155Z,16.65
2018-09-09T03:08:58.879Z,16.58
2018-09-09T03:11:28.662Z,16.60
2018-09-09T03:13:58.400Z,16.55
2018-09-09T03:16:28.014Z,16.61
2018-09-09T03:39:13.561Z,16.37
2018-09-09T03:41:42.998Z,16.27
2018-09-09T03:44:12.433Z,16.34
2018-09-09T03:46:42.220Z,16.38
2018-09-09T04:06:35.013Z,16.16
2018-09-09T04:09:05.747Z,16.20
2018-09-09T04:11:35.681Z,16.15
2018-09-09T04:31:28.246Z,16.24
2018-09-09T04:33:57.720Z,16.36
2018-09-09T04:53:50.041Z,16.32
2018-09-09T04:56:19.612Z,16.26
2018-09-09T04:58:49.122Z,16.26
2018-09-09T05:01:18.937Z,16.35
2018-09-09T05:03:48.636Z,16.38
2018-09-09T05:06:18.207Z,16.37
2018-09-09T05:08:48.176Z,16.58
2018-09-09T05:11:17.869Z,16.57
2018-09-09T05:31:09.949Z,16.87
2018-09-09T05:33:40.175Z,16.91
2018-09-09T05:36:09.759Z,16.94
2018-09-09T05:38:39.818Z,16.96
2018-09-09T05:41:09.579Z,17.07
2018-09-09T05:43:38.971Z,17.03
2018-09-09T05:46:09.059Z,17.02
2018-09-09T05:48:38.714Z,17.12
2018-09-09T05:51:08.678Z,17.14
2018-09-09T05:53:38.512Z,17.26
2018-09-09T05:56:08.193Z,17.26
2018-09-09T05:58:37.658Z,17.39
2018-09-09T06:01:07.505Z,17.29
2018-09-09T06:03:37.075Z,17.37
2018-09-09T06:06:07.032Z,17.36
2018-09-09T06:08:36.978Z,17.40
2018-09-09T06:11:06.839Z,17.43
2018-09-09T06:13:36.329Z,17.41
2018-09-09T06:16:06.344Z,17.36
2018-09-09T06:18:35.813Z,17.43
2018-09-09T06:21:05.233Z,17.41
2018-09-09T06:23:35.414Z,17.52
2018-09-09T06:26:04.989Z,17.51
2018-09-09T06:28:34.620Z,17.50
2018-09-09T06:31:04.503Z,17.69
2018-09-09T06:33:34.239Z,17.68
2018-09-09T06:53:26.799Z,18.15
2018-09-09T06:55:56.148Z,18.22
2018-09-09T06:58:25.697Z,18.22
2018-09-09T07:00:55.386Z,18.33
2018-09-09T07:03:25.013Z,18.46
2018-09-09T07:05:54.470Z,18.55
2018-09-09T07:08:24.488Z,18.59
2018-09-09T07:10:54.088Z,18.71
2018-09-09T07:13:23.958Z,18.77
2018-09-09T07:15:53.826Z,18.78
2018-09-09T07:18:23.491Z,18.89
2018-09-09T07:20:53.101Z,18.86
2018-09-09T07:40:45.381Z,19.50
2018-09-09T07:43:14.950Z,19.53
2018-09-09T07:45:45.402Z,19.59
2018-09-09T07:48:15.152Z,19.70
2018-09-09T07:50:44.691Z,19.79
2018-09-09T07:53:14.338Z,19.86
2018-09-09T07:55:44.297Z,19.92
2018-09-09T07:58:13.780Z,20.05
2018-09-09T08:18:05.322Z,21.03
2018-09-09T08:20:35.700Z,20.97
2018-09-09T08:23:05.466Z,21.18
2018-09-09T08:42:56.741Z,21.12
2018-09-09T08:45:26.274Z,21.12
2018-09-09T08:47:55.706Z,21.27
2018-09-09T08:50:25.711Z,21.36
2018-09-09T09:10:16.383Z,21.87
2018-09-09T09:12:46.354Z,22.09
2018-09-09T09:15:16.020Z,21.90
2018-09-09T09:17:45.885Z,21.91
2018-09-09T09:20:16.093Z,22.12
2018-09-09T09:22:45.671Z,22.58
2018-09-09T09:42:37.647Z,22.46
2018-09-09T09:45:07.269Z,23.05
2018-09-09T10:04:59.019Z,22.47
2018-09-09T10:07:28.736Z,22.89
2018-09-09T10:09:58.230Z,23.28
2018-09-09T10:12:27.874Z,23.52
2018-09-09T10:14:57.276Z,23.47
2018-09-09T10:17:26.718Z,23.59
2018-09-09T10:19:56.664Z,23.77
2018-09-09T10:22:26.362Z,24.08
2018-09-09T10:24:55.672Z,24.29
2018-09-09T10:44:46.850Z,24.39
2018-09-09T10:47:16.471Z,24.19
2018-09-09T10:49:46.214Z,24.05
2018-09-09T10:52:16.263Z,24.34
2018-09-09T10:54:45.937Z,24.30
2018-09-09T10:57:15.818Z,24.15
2018-09-09T10:59:45.397Z,23.96
2018-09-09T11:02:15.085Z,23.79
2018-09-09T11:04:44.786Z,23.76
2018-09-09T11:07:14.306Z,24.14
2018-09-09T11:41:34.526Z,22.28
2018-09-09T11:44:04.116Z,21.97
2018-09-09T11:46:33.835Z,21.83
2018-09-09T11:49:04.377Z,22.03
2018-09-09T11:51:33.870Z,22.04
2018-09-09T11:54:03.733Z,22.35
2018-09-09T11:56:34.059Z,22.34
2018-09-09T11:59:03.813Z,22.19
2018-09-09T12:01:33.439Z,21.92
2018-09-09T12:04:03.467Z,21.60
2018-09-09T12:06:33.043Z,20.90
2018-09-09T12:09:02.677Z,20.83
2018-09-09T12:11:32.715Z,20.53
2018-09-09T12:14:02.071Z,20.42
2018-09-09T12:16:31.773Z,20.48
2018-09-09T12:19:02.338Z,20.73
2018-09-09T12:21:32.046Z,20.87
2018-09-09T12:24:01.542Z,21.03
2018-09-09T12:26:31.385Z,21.83
2018-09-09T12:29:01.104Z,22.28
2018-09-09T12:31:30.834Z,22.09
2018-09-09T12:34:00.722Z,22.57
2018-09-09T12:36:30.454Z,22.57
2018-09-09T12:38:59.913Z,23.16
2018-09-09T12:41:29.854Z,23.34
2018-09-09T12:44:04.477Z,23.48
2018-09-09T13:03:56.042Z,19.99
2018-09-09T13:06:25.482Z,19.71
2018-09-09T13:26:17.290Z,20.07
2018-09-09T13:28:46.958Z,20.06
2018-09-09T13:31:16.557Z,20.22
2018-09-09T13:33:46.447Z,20.31
2018-09-09T13:36:16.033Z,20.33
2018-09-09T13:38:45.896Z,20.29
2018-09-09T13:41:15.930Z,20.32
2018-09-09T13:43:45.377Z,20.15
2018-09-09T13:46:15.039Z,20.18
2018-09-09T13:48:44.965Z,20.18
2018-09-09T13:51:14.667Z,20.17
2018-09-09T14:11:06.504Z,20.50
2018-09-09T14:13:36.068Z,20.54
2018-09-09T14:16:05.708Z,20.76
2018-09-09T14:18:35.870Z,21.12
2018-09-09T14:21:05.249Z,21.04
2018-09-09T14:23:34.968Z,20.97
2018-09-09T14:26:04.889Z,20.88
2018-09-09T14:45:55.852Z,21.14
2018-09-09T14:48:25.460Z,21.60
2018-09-09T14:50:54.934Z,22.49
2018-09-09T14:53:24.385Z,23.18
2018-09-09T14:55:54.196Z,23.64
2018-09-09T14:58:23.956Z,23.97
2018-09-09T15:00:53.561Z,24.09
2018-09-09T15:20:45.350Z,24.10
2018-09-09T15:23:14.915Z,23.76
2018-09-09T15:25:44.459Z,23.32
2018-09-09T15:28:14.295Z,23.29
2018-09-09T15:30:43.742Z,23.41
2018-09-09T15:33:13.137Z,23.55
2018-09-09T15:35:42.867Z,23.41
2018-09-09T15:38:12.681Z,23.30
2018-09-09T15:58:05.004Z,23.11
2018-09-09T16:00:34.815Z,22.93
2018-09-09T16:03:04.587Z,22.94
2018-09-09T16:05:34.489Z,22.96
2018-09-09T16:25:26.126Z,22.05
2018-09-09T16:45:18.507Z,21.31
2018-09-09T17:05:09.735Z,20.66
2018-09-09T17:07:39.213Z,20.52
2018-09-09T17:10:08.721Z,20.54
2018-09-09T17:12:38.291Z,20.48
2018-09-09T17:32:30.856Z,20.29
2018-09-09T17:35:00.326Z,20.30
2018-09-09T17:37:29.798Z,20.21
2018-09-09T17:57:22.536Z,19.85
2018-09-09T17:59:51.972Z,19.90
2018-09-09T18:02:21.796Z,19.78
2018-09-09T18:04:51.613Z,19.81
2018-09-09T18:07:21.028Z,19.73
2018-09-09T18:09:50.893Z,19.62
2018-09-09T18:12:20.708Z,19.59
2018-09-09T18:32:13.101Z,19.50
2018-09-09T18:34:42.766Z,19.46
2018-09-09T18:37:12.516Z,19.40
2018-09-09T18:39:42.139Z,19.43
2018-09-09T18:42:11.925Z,19.45
2018-09-09T18:44:41.476Z,19.31
2018-09-09T18:47:11.061Z,19.30
2018-09-09T18:49:41.094Z,19.20
2018-09-09T18:52:10.881Z,19.29
2018-09-09T18:54:40.513Z,19.18
2018-09-09T18:57:10.517Z,19.09
2018-09-09T18:59:40.115Z,19.05
2018-09-09T19:02:09.860Z,19.07
2018-09-09T19:04:39.948Z,18.97
2018-09-09T19:42:16.750Z,18.48
2018-09-09T19:44:46.907Z,18.51
2018-09-09T20:04:38.356Z,18.31
2018-09-09T20:07:07.942Z,18.41
2018-09-09T20:09:37.512Z,18.41
2018-09-09T20:12:06.973Z,18.35
2018-09-09T20:14:37.000Z,18.34
2018-09-09T20:17:06.687Z,18.30
2018-09-09T20:19:36.478Z,18.31
2018-09-09T20:22:08.939Z,18.23
2018-09-09T20:24:38.583Z,18.25
2018-09-09T20:27:08.290Z,18.26
2018-09-09T20:29:38.386Z,18.28
2018-09-09T20:32:07.875Z,18.23
2018-09-09T20:34:37.540Z,18.14
2018-09-09T20:37:07.262Z,18.13
2018-09-09T20:39:36.752Z,18.05
2018-09-09T20:45:00.557Z,18.03
2018-09-09T20:47:30.374Z,18.00
2018-09-09T20:50:00.081Z,18.00
2018-09-09T20:52:29.791Z,17.97
2018-09-09T20:54:59.579Z,17.94
2018-09-09T20:57:29.644Z,17.92
2018-09-09T20:59:59.103Z,17.90
2018-09-09T21:02:29.326Z,17.92
2018-09-09T21:04:58.906Z,17.92
2018-09-09T21:07:28.617Z,17.92
2018-09-09T21:09:58.674Z,17.88
2018-09-09T21:12:28.322Z,17.89
2018-09-09T21:14:57.994Z,17.77
2018-09-09T21:17:28.080Z,17.80
2018-09-09T21:19:58.624Z,17.81
2018-09-09T21:22:28.464Z,17.78
2018-09-09T21:24:59.082Z,17.73
2018-09-09T21:27:29.950Z,17.77
2018-09-09T21:30:00.148Z,17.77
2018-09-09T21:32:29.805Z,17.72
2018-09-09T21:35:00.660Z,17.72
2018-09-09T21:37:30.986Z,17.72
2018-09-09T21:40:00.767Z,17.71
2018-09-09T21:42:31.303Z,17.71
2018-09-09T21:45:01.306Z,17.66
2018-09-09T21:47:31.092Z,17.60
2018-09-09T21:50:01.325Z,17.62
2018-09-09T21:52:30.993Z,17.59
2018-09-09T21:55:00.830Z,17.71
2018-09-09T21:57:30.823Z,17.63
2018-09-09T22:00:02.036Z,17.57
2018-09-09T22:02:31.810Z,17.58
2018-09-09T22:05:01.520Z,17.56
2018-09-09T22:07:31.190Z,17.51
2018-09-09T22:10:00.645Z,17.50
2018-09-09T22:12:30.542Z,17.54
2018-09-09T22:15:00.293Z,17.46
2018-09-09T22:17:29.837Z,17.44
2018-09-09T22:19:59.780Z,17.41
2018-09-09T22:22:29.995Z,17.41
2018-09-09T22:24:59.793Z,17.46
2018-09-09T22:27:29.237Z,17.46
2018-09-09T22:29:59.551Z,17.38
2018-09-09T22:32:29.154Z,17.33
2018-09-09T22:34:58.890Z,17.30
2018-09-09T22:37:29.003Z,17.26
2018-09-09T22:39:58.709Z,17.24
2018-09-09T22:42:28.400Z,17.21
2018-09-09T22:44:58.257Z,17.15
2018-09-09T22:47:28.030Z,17.17
2018-09-09T22:49:57.547Z,17.12
2018-09-09T22:52:27.797Z,17.14
2018-09-09T22:54:58.306Z,17.09
2018-09-09T22:57:28.115Z,17.14
2018-09-09T22:59:57.507Z,17.09
2018-09-09T23:02:27.096Z,17.02
2018-09-09T23:04:56.722Z,17.01
2018-09-09T23:07:26.902Z,17.03
2018-09-09T23:09:56.558Z,16.90
2018-09-09T23:12:26.675Z,17.00
2018-09-09T23:14:56.625Z,17.02
2018-09-09T23:17:26.260Z,17.00
2018-09-09T23:19:55.709Z,16.90
2018-09-09T23:22:25.653Z,16.91
2018-09-09T23:24:55.099Z,16.90
2018-09-09T23:27:25.035Z,16.95
2018-09-09T23:29:55.144Z,16.84
2018-09-09T23:32:24.794Z,16.86
2018-09-09T23:34:54.167Z,16.92
2018-09-09T23:37:23.802Z,16.82
2018-09-09T23:39:53.314Z,16.79
2018-09-09T23:42:23.419Z,16.74
2018-09-09T23:44:53.304Z,16.75
2018-09-09T23:47:22.828Z,16.70
2018-09-09T23:49:52.385Z,16.66
2018-09-09T23:52:22.149Z,16.74
2018-09-09T23:54:51.589Z,16.61
2018-09-09T23:57:21.477Z,16.71
2018-09-09T23:59:51.805Z,16.65
